Alsen, North Dakota
Current Conditions -  °F | °C
As of 2:35 PM on Saturday 25 Oct 2014 (Local Time) from KD55 Reporting Station
Clear Clear  
Wind Chill: 15°   Ceiling: Unl
Heat Index: 15°   Visibility: 10mi
Dew Point: -5°   Wind: 18mph
Humidity: 25%   Direction: 310°NW
Pressure: 30.04"   Gusts: 22mph
Location:  48.63°N, 98.7°W
Report Text: KD55 251935Z AUTO 31016G19KT 10SM CLR 15/M05 A3004 RMK AO2
Loading
Personal Weather Stations






























Interactive Weather Map
Tropical Storm Tracking
New forecast layout! Learn more

10-Day Weather Forecast

Advertisements
Track Severe Weather on mobile